• Join FlightAware (Why Join?)
  • Login
  • US Flag 
05:45AM EDT


 

Airport Tracker/Info


-or-


 

Live Flight TrackerFlight Track Log ✈ SWA1362 ✈ 04-May-2013 ✈ KLGA - KMDW

Flight Track Log - Related Links

Times and Time Zones

All times are in EDT time to prevent confusion due to time zone crossing. See the SWA1362 flight status page for this flight to view local times or setup timezone preferences in your user account.

Time Position Orientation Groundspeed Altitude Reporting Facility
EDT Latitude Longitude Course Direction KTS MPH feet Rate Location/Type
07:15AM 40.8167 -73.9167 270° West 183 211 2,700  Level New York TRACON
07:16AM 40.8667 -73.9667 323° Northwest 243 280 4,900 2,820 Climbing New York TRACON
07:17AM 40.9000 -74.0667 294° West 293 337 8,100 3,120 Climbing New York TRACON
07:18AM 40.9000 -74.1833 270° West 312 359 11,200 2,580 Climbing New York TRACON
07:20AM 40.9025 -74.4417 271° West 376 433 16,300 1,860 Climbing New York Center
07:21AM 40.8667 -74.7134 270° West  Level FlightAware Approximate
07:21AM 40.9058 -74.6011 272° West 394 453 17,100  Level New York Center
07:22AM 40.9078 -74.7275 271° West 394 453 17,100  Level New York Center
07:23AM 40.9128 -74.8897 272° West 394 453 17,100 780 Level New York Center
07:24AM 40.9164 -75.0192 272° West 399 459 18,700 1,920 Climbing New York Center
07:25AM 40.9153 -75.1672 269° West 404 465 21,000 2,340 Climbing New York Center
07:26AM 40.8794 -75.3378 255° West 418 481 23,400 2,040 Climbing New York Center
07:27AM 40.8539 -75.4622 255° West 432 497 25,100 1,860 Climbing New York Center
07:28AM 40.8067 -75.6483 252° West 432 497 27,100 1,680 Climbing New York Center
07:29AM 40.7686 -75.8128 253° West 456 525 28,600 1,500 Climbing New York Center
07:30AM 40.7283 -75.9742 252° West 461 531 30,100 1,620 Climbing New York Center
07:31AM 40.6897 -76.1381 253° West 466 536 31,900 1,680 Climbing New York Center
07:32AM 40.6719 -76.2981 262° West 466 536 33,600 1,560 Climbing New York Center
07:33AM 40.6958 -76.4533 282° West 441 507 35,100 1,200 Climbing New York Center
07:34AM 40.7172 -76.6114 280° West 441 507 36,000 420 Climbing New York Center
07:35AM 40.7408 -76.7639 282° West 441 507 36,000  Level New York Center
07:36AM 40.7639 -76.9222 281° West 441 507 36,000  Level New York Center
07:37AM 40.7869 -77.0806 281° West 436 502 36,000  Level New York Center
07:38AM 40.8097 -77.2364 281° West 430 495 36,000  Level New York Center
07:39AM 40.8294 -77.3725 281° West 430 495 36,000  Level New York Center
07:41AM 40.8728 -77.6917 280° West 437 503 36,000  Level Cleveland Center
07:42AM 40.8931 -77.8336 281° West 437 503 36,000  Level Cleveland Center
07:43AM 40.9133 -77.9892 280° West 442 509 36,000  Level Cleveland Center
07:44AM 40.9333 -78.1425 280° West 442 509 36,000  Level Cleveland Center
07:45AM 40.9578 -78.3147 281° West 442 509 36,000  Level Cleveland Center
07:46AM 40.9753 -78.4681 279° West 432 497 36,000  Level Cleveland Center
07:47AM 40.9947 -78.6217 280° West 432 497 36,000  Level Cleveland Center
07:48AM 41.0139 -78.7781 279° West 427 491 36,000  Level Cleveland Center
07:49AM 41.0308 -78.9344 278° West 427 491 36,000  Level Cleveland Center
07:50AM 41.0497 -79.0908 279° West 427 491 36,000  Level Cleveland Center
07:51AM 41.0664 -79.2475 278° West 427 491 36,000  Level Cleveland Center
07:52AM 41.0847 -79.4042 279° West 427 491 36,000  Level Cleveland Center
07:53AM 41.1028 -79.5581 279° West 427 491 36,000  Level Cleveland Center
07:54AM 41.1186 -79.7206 277° West 427 491 36,000  Level Cleveland Center
07:55AM 41.1344 -79.8828 277° West 437 503 36,000  Level Cleveland Center
07:56AM 41.1542 -80.0344 280° West 437 503 36,000  Level Cleveland Center
07:57AM 41.1714 -80.1969 278° West 437 503 36,000  Level Cleveland Center
07:58AM 41.1864 -80.3597 277° West 442 509 36,000  Level Cleveland Center
07:59AM 41.2033 -80.5197 278° West 444 511 36,000  Level Cleveland Center
08:00AM 41.2200 -80.6797 278° West 444 511 36,000  Level Cleveland Center
08:01AM 41.2342 -80.8453 277° West 450 518 36,000  Level Cleveland Center
08:02AM 41.2483 -80.9919 277° West 455 524 36,000  Level Cleveland Center
08:03AM 41.2644 -81.1550 278° West 450 518 36,000 360 Level Cleveland Center
08:04AM 41.2800 -81.3181 277° West 450 518 36,800 900 Climbing Cleveland Center
08:05AM 41.2956 -81.4978 277° West 450 518 37,800 600 Climbing Cleveland Center
08:06AM 41.3067 -81.6639 275° West 445 512 38,000 60 Climbing Cleveland Center
08:07AM 41.3175 -81.8300 275° West 445 512 38,000  Level Cleveland Center
08:08AM 41.3300 -81.9933 276° West 450 518 38,000  Level Cleveland Center
08:09AM 41.3381 -82.1678 274° West 463 533 38,000  Level Cleveland Center
08:10AM 41.3464 -82.3200 274° West 463 533 38,000  Level Cleveland Center
08:11AM 41.3583 -82.4864 276° West 463 533 38,000  Level Cleveland Center
08:12AM 41.3681 -82.6500 275° West 458 527 38,000  Level Cleveland Center
08:13AM 41.3775 -82.8164 274° West 458 527 38,000  Level Cleveland Center
08:14AM 41.3864 -82.9856 274° West 465 535 38,000  Level Cleveland Center
08:15AM 41.3972 -83.1575 275° West 458 527 38,000  Level Cleveland Center
08:16AM 41.4039 -83.3211 273° West 463 533 38,000  Level Cleveland Center
08:17AM 41.4144 -83.4906 275° West 463 533 38,000  Level Cleveland Center
08:18AM 41.4225 -83.6597 274° West 463 533 38,000  Level Cleveland Center
08:19AM 41.4303 -83.8319 274° West 463 533 38,000  Level Cleveland Center
08:20AM 41.4419 -84.0042 275° West 463 533 38,000 -900 Level Cleveland Center
08:21AM 41.4494 -84.1681 274° West 463 533 36,300 -1,920 Descending Cleveland Center
08:24AM 41.4694 -84.5503 274° West 440 506 31,600 -1,920 Descending Chicago Center
08:25AM 41.4761 -84.7056 273° West 424 488 30,000 -840 Descending Chicago Center
08:26AM 41.4825 -84.8597 273° West 419 482 30,000  Level Chicago Center
08:27AM 41.4889 -85.0164 273° West 421 484 30,000 -1,020 Level Chicago Center
08:28AM 41.4956 -85.1850 273° West 447 514 28,000 -2,220 Descending Chicago Center
08:29AM 41.5006 -85.3539 272° West 451 519 25,600 -2,040 Descending Chicago Center
08:30AM 41.5075 -85.5211 273° West 439 505 23,900 -2,040 Descending Chicago Center
08:31AM 41.5133 -85.6792 273° West 423 487 21,500 -2,460 Descending Chicago Center
08:32AM 41.5189 -85.8644 272° West 416 479 18,900 -2,400 Descending Chicago Center
08:33AM 41.5236 -86.0206 272° West 420 483 16,700 -2,280 Descending Chicago Center
08:34AM 41.5242 -86.1731 270° West 414 476 14,300 -2,280 Descending Chicago Center
08:35AM 41.5225 -86.3200 269° West 401 461 12,100 -1,740 Descending Chicago Center
08:36AM 41.5233 -86.4592 271° West 379 436 10,800 -1,020 Descending Chicago Center
08:37AM 41.5208 -86.5928 269° West 364 419 10,100 -360 Descending Chicago Center
08:38AM 41.5200 -86.7361 270° West 365 420 10,100 -180 Level Chicago Center
08:39AM 41.5186 -86.8592 269° West 335 386 9,800 -840 Descending Chicago Center
08:40AM 41.5172 -86.9725 269° West 308 354 8,400 -1,500 Descending Chicago Center
08:41AM 41.5156 -87.0847 269° West 306 352 6,800 -1,320 Descending Chicago Center
08:42AM 41.5167 -87.1833 271° West 295 339 6,000 -900 Descending Chicago TRACON
08:43AM 41.5167 -87.3000 270° West 281 323 5,200 -900 Descending Chicago TRACON
08:44AM 41.5167 -87.3833 270° West 278 320 4,300 -1,080 Descending Chicago TRACON
08:44AM 41.5128 -87.4211 262° West 279 321 3,900 -240 Descending Chicago Center
08:45AM 41.5186 -87.5208 275° West 275 316 4,000  Climbing Chicago Center
08:46AM 41.5322 -87.6211 280° West 275 316 4,000 -60 Level Chicago Center
08:47AM 41.5517 -87.7150 285° West 269 310 3,900 -300 Descending Chicago Center
08:48AM 41.5764 -87.7950 292° West 251 289 3,500 -720 Descending Chicago Center
08:49AM 41.6186 -87.8608 311° West 241 277 2,500 -720 Descending Chicago Center
08:49AM 41.6500 -87.8667 352° North 231 266 2,600 60 Climbing Chicago TRACON
08:50AM 41.7000 -87.8333 26° Northeast 181 208 2,600 -360 Level Chicago TRACON
08:51AM 41.7333 -87.8167 20° North 152 175 1,900 -780 Descending Chicago TRACON
08:52AM 41.7667 -87.7833 37° Northeast 147 169 1,200 -780 Descending Chicago TRACON
08:55AM 41.7833 -87.7500 24° Northeast  Level FlightAware Approximate